Terminal Aerodrome Forecast
Issued by NWS

Home | Current Version | Previous Version | Text Only | Print | Product List | Glossary On
Versions: 1 2 3 4 5 6 7 8 9 10 11 12 13 14 15 16
000
FTUS44 KSJT 111100
TAFJCT
TAF
KJCT 111120Z 1112/1212 14007KT P6SM VCSH BKN035
      TEMPO 1112/1115 -SHRA BKN025
     FM111500 17013G22KT P6SM SCT040 BKN100
     FM120200 15007KT P6SM SCT150=

USA.gov is the U.S. government's official web portal to all federal, state and local government web resources and services.